Terminal Aerodrome Forecast
Issued by NWS Louisville, KY

Home | Current Version | Previous Version | Text Only | Print | Product List | Glossary On
Versions: 1 2 3 4 5 6 7 8 9 10 11 12 13 14
000
FTUS43 KLMK 232320
TAFLEX
TAF
KLEX 232320Z 2400/2424 09010G20KT 5SM -SHRA BR OVC040
     FM240400 08011KT P6SM VCSH BKN025 OVC040
     FM240900 06012KT 5SM -SHRA BR OVC015=

USA.gov is the U.S. government's official web portal to all federal, state and local government web resources and services.